Latest Coastal Weather Observations for Wilsons Promontory

IDT60701

Issued at 11:41 pm EST Friday 5 June 2020 (issued every 10 minutes, with the page automatically refreshed every 10 minutes)

About coastal observations | Map of coastal stations | Coastal observations for TAS | Marine services | Other Formats
Station Details ID: 085096 Name: WILSONS PROMONTORY LIGHTHOUSE Lat: -39.13 Lon: 146.42 Height: 95.0 m
Data from the previous 72 hours. | See also: Recent months at Wilsons Promontory
Date/Time
EST
Wind Sea
Height
m
Swell Vis
km
Cloud Weather Temp
°C
Press
hPa
Rain since
9am
mm
Dir  Spd
kts
Gust
kts
Height
m
Period
s
Dir
05/11:30pm W 15 21 - - - - - - - 11.6 1025.8 0.6
05/11:00pm W 17 23 - - - - - - - 11.7 1025.8 0.6
05/10:30pm W 15 21 - - - - - - - 11.7 1025.9 0.6
05/10:00pm W 17 22 - - - - - - - 11.5 1025.9 0.6
05/09:30pm W 12 18 - - - - - - - 12.3 1026.2 0.2
05/09:00pm W 13 22 - - - - - - - 12.3 1026.4 0.2
05/08:30pm W 15 23 - - - - - - - 12.3 1026.2 0.2
05/08:00pm W 16 22 - - - - - - - 12.3 1026.3 0.2
05/07:30pm W 17 25 - - - - - - - 12.3 1026.2 0.2
05/07:00pm W 16 27 - - - - - - - 12.1 1026.1 0.2
05/06:39pm W 17 27 - - - - - - - 11.8 1026.1 0.2
05/06:30pm W 20 27 - - - - - - - 11.7 1025.9 0.2
05/06:18pm W 17 27 - - - - - - - 11.7 1026.0 0.2
05/06:00pm W 19 28 - - - - - - - 11.8 1025.8 0.2
05/05:30pm W 21 31 - - - - - - - 11.6 1025.3 0.2
05/05:00pm W 21 31 - - - - - - - 11.4 1025.3 0.2
05/04:30pm W 19 29 - - - - - - - 11.8 1025.4 0.0
05/04:07pm W 19 29 - - - - - - - 11.9 1025.2 0.0
05/04:00pm W 20 28 - - - - - - - 11.9 1025.2 0.0
05/03:31pm W 19 29 - - - - - - - 12.0 1025.3 0.0
05/03:30pm W 20 29 - - - - - - - 12.0 1025.3 0.0
05/03:02pm W 19 29 - - - - - - - 12.0 1025.1 0.0
05/03:00pm W 18 27 - - - - - - - 12.0 1025.4 0.0
05/02:30pm W 19 31 - - - - - - - 11.7 1025.5 0.0
05/02:12pm W 18 31 - - - - - - - 11.5 1025.4 0.0
05/02:00pm WNW 18 26 - - - - - - - 11.5 1025.6 0.0
05/01:30pm W 20 30 - - - - - - - 11.4 1025.9 0.0
05/01:07pm W 15 27 - - - - - - - 11.2 1026.1 0.0
05/01:00pm W 14 25 - - - - - - - 11.3 1026.4 0.0
05/12:30pm W 16 28 - - - - - - - 11.2 1026.8 0.0
05/12:00pm WNW 15 30 - - - - - - - 11.2 1027.3 0.0
05/11:33am W 17 27 - - - - - - - 11.4 1027.7 0.0
05/11:30am W 19 27 - - - - - - - 11.4 1027.6 0.0
05/11:09am W 19 29 - - - - - - - 11.6 1027.8 0.0
05/11:00am W 21 28 - - - - - - - 11.7 1027.8 0.0
05/10:30am W 21 29 - - - - - - - 11.4 1027.9 0.0
05/10:03am W 22 33 - - - - - - - 11.2 1028.0 0.0
05/10:00am W 23 30 - - - - - - - 11.1 1028.0 0.0
05/09:40am W 20 30 - - - - - - - 11.0 1027.7 0.0
05/09:30am W 21 29 - - - - - - - 11.2 1027.7 0.0
05/09:00am W 20 30 - - - - - - - 11.0 1027.8 0.2
05/08:46am W 21 31 - - - - - - - 10.9 1027.9 0.2
05/08:30am W 21 27 - - - - - - - 10.8 1027.8 0.2
05/08:19am W 20 30 - - - - - - - 10.9 1027.9 0.2
05/08:00am W 19 26 - - - - - - - 10.8 1027.6 0.2
05/07:30am WNW 16 22 - - - - - - - 10.5 1027.7 0.2
05/07:13am W 17 27 - - - - - - - 10.9 1027.6 0.2
05/07:00am W 16 23 - - - - - - - 11.1 1027.8 0.2
05/06:40am W 17 30 - - - - - - - 11.4 1027.5 0.2
05/06:30am W 16 24 - - - - - - - 11.3 1027.7 0.2
05/06:06am W 15 25 - - - - - - - 11.3 1027.6 0.2
05/06:00am W 15 23 - - - - - - - 11.3 1027.8 0.2
05/05:30am W 16 24 - - - - - - - 10.9 1027.7 0.2
05/05:00am W 16 23 - - - - - - - 10.9 1027.7 0.2
05/04:32am W 16 26 - - - - - - - 10.9 1027.6 0.2
05/04:30am W 16 23 - - - - - - - 10.9 1027.7 0.2
05/04:00am W 14 21 - - - - - - - 10.8 1027.8 0.2
05/03:30am W 17 23 - - - - - - - 10.8 1027.9 0.2
05/03:20am W 15 25 - - - - - - - 10.7 1027.9 0.2
05/03:00am W 15 23 - - - - - - - 10.7 1028.3 0.2
05/02:30am W 13 19 - - - - - - - 10.5 1028.6 0.2
05/02:00am W 10 15 - - - - - - - 10.5 1028.9 0.2
05/01:30am W 11 17 - - - - - - - 10.3 1028.8 0.2
05/01:00am W 12 19 - - - - - - - 10.4 1029.0 0.2
05/12:30am W 13 19 - - - - - - - 10.6 1029.3 0.2
05/12:01am W 15 26 - - - - - - - 10.6 1029.6 0.2
05/12:00am W 14 26 - - - - - - - 10.6 1029.7 0.2
 
Date/Time
EST
Wind Sea
Height
m
Swell Vis
km
Cloud Weather Temp
°C
Press
hPa
Rain since
9am
mm
Dir  Spd
kts
Gust
kts
Height
m
Period
s
Dir
04/11:30pm W 14 21 - - - - - - - 10.4 1030.0 0.2
04/11:00pm W 14 22 - - - - - - - 10.3 1030.5 0.2
04/10:30pm W 13 19 - - - - - - - 10.4 1030.8 0.2
04/10:00pm W 14 21 - - - - - - - 10.2 1030.8 0.2
04/09:30pm W 11 19 - - - - - - - 10.1 1031.0 0.2
04/09:00pm W 12 20 - - - - - - - 10.4 1031.3 0.2
04/08:30pm W 11 17 - - - - - - - 10.5 1031.4 0.2
04/08:00pm W 15 21 - - - - - - - 10.5 1031.4 0.2
04/07:30pm W 13 21 - - - - - - - 10.4 1031.4 0.2
04/07:00pm W 12 19 - - - - - - - 10.2 1031.3 0.2
04/06:30pm W 15 22 - - - - - - - 10.3 1031.2 0.2
04/06:00pm W 11 17 - - - - - - - 10.6 1031.1 0.2
04/05:30pm W 13 19 - - - - - - - 10.7 1030.9 0.2
04/05:00pm W 13 21 - - - - - - - 10.8 1031.0 0.2
04/04:30pm W 15 20 - - - - - - - 10.9 1030.9 0.2
04/04:00pm W 12 19 - - - - - - - 11.1 1031.1 0.2
04/03:30pm W 14 19 - - - - - - - 11.2 1031.0 0.2
04/03:00pm W 16 20 - - - - - - - 11.3 1031.3 0.2
04/02:30pm W 14 21 - - - - - - - 11.5 1031.2 0.2
04/02:00pm W 15 20 - - - - - - - 11.9 1031.5 0.2
04/01:56pm W 15 21 - - - - - - - 11.7 1031.5 0.2
04/01:30pm WSW 21 24 - - - - - - - 11.3 1031.5 0.0
04/01:21pm SW 21 23 - - - - - - - 11.3 1031.5 0.0
04/01:00pm W 14 19 - - - - - - - 12.4 1032.0 0.0
04/12:30pm W 14 20 - - - - - - - 11.8 1032.3 0.0
04/11:00am WSW 18 24 - - - - - - - 11.2 1033.0 0.0
04/10:30am WSW 21 25 - - - - - - - 11.1 1033.2 0.0
04/10:00am WSW 20 25 - - - - - - - 11.1 1033.1 0.0
04/09:30am SW 18 22 - - - - - - - 11.1 1033.1 0.0
04/09:00am WSW 19 24 - - - - - - - 11.0 1033.1 0.0
04/08:30am WSW 20 25 - - - - - - - 11.0 1032.9 0.0
04/08:00am WSW 15 20 - - - - - - - 10.9 1032.9 0.0
04/07:30am WSW 16 21 - - - - - - - 10.8 1032.8 0.0
04/07:00am WSW 16 21 - - - - - - - 10.7 1032.4 0.0
04/06:30am WSW 20 28 - - - - - - - 10.8 1032.1 0.0
04/06:00am SW 22 29 - - - - - - - 10.5 1032.1 0.0
04/05:30am WSW 17 24 - - - - - - - 10.7 1031.9 0.0
04/05:00am WSW 21 26 - - - - - - - 10.7 1031.7 0.0
04/04:30am WSW 21 26 - - - - - - - 10.6 1031.7 0.0
04/04:00am WSW 19 25 - - - - - - - 10.6 1031.4 0.0
04/03:54am WSW 17 27 - - - - - - - 10.6 1031.8 0.0
04/03:50am WSW 20 27 - - - - - - - 10.6 1032.0 0.0
04/03:30am SW 14 28 - - - - - - - 10.6 1031.8 0.0
04/03:00am SW 15 21 - - - - - - - 10.7 1032.0 0.0
04/02:30am WSW 20 23 - - - - - - - 10.7 1032.0 0.0
04/02:00am SW 17 24 - - - - - - - 10.7 1031.9 0.0
04/01:30am SW 20 27 - - - - - - - 10.6 1031.9 0.0
04/01:05am SW 15 25 - - - - - - - 10.8 1032.0 0.0
04/01:00am SW 20 25 - - - - - - - 10.7 1032.0 0.0
04/12:30am SW 18 23 - - - - - - - 10.9 1032.2 0.0
04/12:00am SW 13 24 - - - - - - - 11.1 1032.3 0.0
 
Date/Time
EST
Wind Sea
Height
m
Swell Vis
km
Cloud Weather Temp
°C
Press
hPa
Rain since
9am
mm
Dir  Spd
kts
Gust
kts
Height
m
Period
s
Dir
03/11:30pm SW 10 20 - - - - - - - 11.1 1032.1 0.0
03/11:12pm SW 15 25 - - - - - - - 11.2 1032.2 0.0
03/11:00pm SW 20 26 - - - - - - - 11.2 1032.3 0.0
03/10:30pm SW 21 25 - - - - - - - 11.2 1031.9 0.0
03/10:03pm SW 18 28 - - - - - - - 11.3 1031.8 0.0
03/10:00pm SW 21 28 - - - - - - - 11.3 1031.7 0.0
03/09:30pm SW 12 21 - - - - - - - 11.4 1031.7 0.0
03/09:00pm SW 17 22 - - - - - - - 11.5 1031.5 0.0
03/08:30pm SW 13 21 - - - - - - - 11.4 1031.6 0.0
03/08:00pm SW 9 18 - - - - - - - 11.4 1031.3 0.0
03/07:30pm SW 18 24 - - - - - - - 11.4 1030.8 0.0
03/07:00pm WSW 7 23 - - - - - - - 11.2 1030.9 0.0
03/06:30pm SW 18 24 - - - - - - - 11.2 1030.4 0.0
03/06:00pm SW 15 25 - - - - - - - 11.2 1030.2 0.0
03/05:30pm SW 17 27 - - - - - - - 11.2 1029.7 0.0
03/05:01pm SW 17 27 - - - - - - - 11.2 1029.6 0.0
03/05:00pm SW 16 25 - - - - - - - 11.2 1029.6 0.0
03/04:31pm SW 16 26 - - - - - - - 11.2 1029.5 0.0
03/04:30pm SW 16 25 - - - - - - - 11.1 1029.5 0.0
03/04:00pm SW 15 26 - - - - - - - 10.9 1029.1 0.0
03/03:31pm SW 15 25 - - - - - - - 10.8 1029.1 0.0
03/03:30pm SW 16 25 - - - - - - - 10.9 1029.1 0.0
03/03:04pm SW 15 25 - - - - - - - 10.8 1028.7 0.0
03/03:00pm SW 13 23 - - - - - - - 10.9 1028.7 0.0
03/02:35pm SW 16 27 - - - - - - - 10.9 1028.1 0.0
03/02:30pm SW 14 27 - - - - - - - 10.9 1028.1 0.0
03/02:00pm SW 15 25 - - - - - - - 10.8 1028.0 0.0
03/01:32pm SW 15 25 - - - - - - - 11.2 1027.9 0.0
03/01:30pm SW 14 25 - - - - - - - 11.1 1027.9 0.0
03/01:16pm SW 15 30 - - - - - - - 11.1 1027.8 0.0
03/01:06pm ESE 9 31 - - - - - - - 11.0 1027.8 0.0
03/01:05pm SW 21 31 - - - - - - - 11.0 1027.7 0.0
03/01:00pm SW 26 31 - - - - - - - 11.0 1027.4 0.0
03/12:57pm SW 15 30 - - - - - - - 11.1 1027.4 0.0
03/12:54pm SE 10 30 - - - - - - - 11.2 1027.4 0.0
03/12:31pm SW 22 32 - - - - - - - 10.9 1027.6 0.0
03/12:30pm SW 23 32 - - - - - - - 11.0 1027.5 0.0
03/12:00pm SW 17 30 - - - - - - - 11.5 1027.5 0.0
03/11:30am SW 18 30 - - - - - - - 11.3 1027.1 0.0
03/11:00am SSW 16 32 - - - - - - - 11.1 1026.9 0.0
03/10:30am SW 15 36 - - - - - - - 11.2 1026.2 0.0
03/10:25am SW 33 37 - - - - - - - 11.1 1026.2 0.0
03/10:22am SW 21 38 - - - - - - - 11.2 1026.1 0.0
03/10:16am SW 35 38 - - - - - - - 11.1 1026.0 0.0
03/10:00am SW 23 34 - - - - - - - 11.0 1026.0 0.0
03/09:30am SW 27 39 - - - - - - - 11.1 1025.1 0.0
03/09:00am SW 27 40 - - - - - - - 11.1 1024.5 10.0
03/08:56am SW 30 40 - - - - - - - 11.0 1024.6 10.0
03/08:47am SW 34 38 - - - - - - - 11.0 1024.5 10.0
03/08:45am SW 22 38 - - - - - - - 11.0 1024.5 10.0
03/08:44am SW 19 41 - - - - - - - 11.0 1024.3 10.0
03/08:40am SW 31 41 - - - - - - - 10.9 1024.2 10.0
03/08:30am SW 33 41 - - - - - - - 11.0 1024.0 10.0
03/08:21am SW 37 47 - - - - - - - 11.0 1023.8 10.0
03/08:00am SW 40 47 - - - - - - - 11.2 1023.0 10.0
03/07:30am WSW 42 48 - - - - - - - 11.1 1022.1 10.0
03/07:00am SW 42 47 - - - - - - - 11.3 1021.4 10.0
03/06:30am SW 40 47 - - - - - - - 11.6 1020.8 10.0
03/06:00am SW 39 47 - - - - - - - 11.5 1020.6 10.0
03/05:58am SW 36 47 - - - - - - - 11.5 1020.5 10.0
03/05:30am SW 39 46 - - - - - - - 11.6 1019.7 10.0
03/05:01am SW 36 46 - - - - - - - 11.1 1019.4 10.0
03/05:00am SW 37 46 - - - - - - - 11.0 1019.3 10.0
03/04:56am SW 42 45 - - - - - - - 11.7 1019.0 10.0
03/04:47am SW 29 45 - - - - - - - 11.7 1019.2 10.0
03/04:46am SW 27 45 - - - - - - - 11.8 1019.0 10.0
03/04:34am WSW 37 47 - - - - - - - 11.9 1019.0 10.0
03/04:30am WSW 36 43 - - - - - - - 11.6 1019.3 10.0
03/04:22am WSW 33 45 - - - - - - - 11.7 1018.9 10.0
03/04:03am SW 47 57 - - - - - - - 11.8 1018.0 10.0
03/04:00am SW 48 57 - - - - - - - 11.7 1017.6 10.0
03/03:30am WSW 41 53 - - - - - - - 11.4 1018.1 10.0
03/03:27am WSW 43 53 - - - - - - - 11.3 1017.9 10.0
03/03:01am WSW 48 51 - - - - - - - 11.7 1016.9 10.0
03/03:00am WSW 34 51 - - - - - - - 11.6 1017.0 10.0
03/02:59am WSW 32 45 - - - - - - - 11.6 1017.5 10.0
03/02:51am W 31 49 - - - - - - - 11.0 1017.7 10.0
03/02:42am WSW 42 52 - - - - - - - 11.9 1017.2 10.0
03/02:30am WSW 47 54 - - - - - - - 11.9 1016.6 10.0
03/02:03am WSW 48 58 - - - - - - - 11.4 1016.5 10.0
03/02:00am WSW 49 58 - - - - - - - 11.6 1015.6 10.0
03/01:32am WSW 42 53 - - - - - - - 11.9 1015.2 10.0
03/01:30am WSW 42 51 - - - - - - - 11.9 1015.3 10.0
03/01:10am WSW 47 57 - - - - - - - 11.6 1015.2 10.0
03/01:00am WSW 49 58 - - - - - - - 11.7 1014.7 10.0
03/12:30am WSW 46 61 - - - - - - - 10.5 1015.2 10.0
03/12:23am WSW 46 58 - - - - - - - 10.4 1014.6 9.6
03/12:22am WSW 44 53 - - - - - - - 11.0 1015.0 9.6
03/12:00am W 33 51 - - - - - - - 11.6 1014.9 9.0
 
Date/Time
EST
Wind Sea
Height
m
Swell Vis
km
Cloud Weather Temp
°C
Press
hPa
Rain since
9am
mm
Dir  Spd
kts
Gust
kts
Height
m
Period
s
Dir
02/11:54pm WSW 32 56 - - - - - - - 11.5 1014.4 9.0
02/11:43pm WSW 47 58 - - - - - - - 11.8 1013.3 9.0

Other formats

Comma delimited format used in spreadsheet applications
http://www.bom.gov.au/fwo/IDT60701/IDT60701.94893.axf

JavaScript Object Notation format (JSON) in row-major order
http://www.bom.gov.au/fwo/IDT60701/IDT60701.94893.json

Data quality

Most of these data are generated automatically and are frequently updated. Quality checks on data are not normally performed. It is possible for incorrect values to appear. Refer to information at About Latest Weather Observations and please check the disclaimer before using these data.